sensor_id;sensor_type;location;lat;lon;timestamp;pressure;altitude;pressure_sealevel;temperature;humidity
55490;BME280;44029;52.956;4.772;2023-07-24T00:01:51;100390.13;;;22.27;100.00
55490;BME280;44029;52.956;4.772;2023-07-24T00:04:17;100391.13;;;22.43;100.00
55490;BME280;44029;52.956;4.772;2023-07-24T00:06:42;100380.41;;;22.24;100.00
55490;BME280;44029;52.956;4.772;2023-07-24T00:09:08;100387.09;;;22.32;100.00
55490;BME280;44029;52.956;4.772;2023-07-24T00:11:33;100382.28;;;22.41;100.00
55490;BME280;44029;52.956;4.772;2023-07-24T00:13:58;100394.88;;;22.26;100.00
55490;BME280;44029;52.956;4.772;2023-07-24T00:16:24;100389.84;;;22.41;100.00
55490;BME280;44029;52.956;4.772;2023-07-24T00:18:49;100398.34;;;22.44;100.00
55490;BME280;44029;52.956;4.772;2023-07-24T00:21:14;100379.09;;;22.30;100.00
55490;BME280;44029;52.956;4.772;2023-07-24T00:23:40;100383.78;;;22.17;100.00
55490;BME280;44029;52.956;4.772;2023-07-24T00:26:05;100387.22;;;22.14;100.00
55490;BME280;44029;52.956;4.772;2023-07-24T00:28:30;100384.84;;;22.25;100.00
55490;BME280;44029;52.956;4.772;2023-07-24T00:30:56;100385.84;;;21.99;100.00
55490;BME280;44029;52.956;4.772;2023-07-24T00:33:22;100385.59;;;22.55;100.00
55490;BME280;44029;52.956;4.772;2023-07-24T00:35:47;100389.03;;;22.40;100.00
55490;BME280;44029;52.956;4.772;2023-07-24T00:38:12;100385.03;;;22.29;100.00
55490;BME280;44029;52.956;4.772;2023-07-24T00:40:38;100383.28;;;22.57;100.00
55490;BME280;44029;52.956;4.772;2023-07-24T00:43:03;100391.03;;;22.52;100.00
55490;BME280;44029;52.956;4.772;2023-07-24T00:45:29;100376.63;;;22.83;100.00
55490;BME280;44029;52.956;4.772;2023-07-24T00:47:54;100369.25;;;22.24;100.00
55490;BME280;44029;52.956;4.772;2023-07-24T00:50:20;100381.91;;;22.30;100.00
55490;BME280;44029;52.956;4.772;2023-07-24T00:52:46;100377.16;;;22.64;100.00
55490;BME280;44029;52.956;4.772;2023-07-24T00:55:13;100377.88;;;22.40;100.00
55490;BME280;44029;52.956;4.772;2023-07-24T00:57:40;100380.09;;;22.47;100.00
55490;BME280;44029;52.956;4.772;2023-07-24T01:00:06;100377.44;;;22.08;100.00
55490;BME280;44029;52.956;4.772;2023-07-24T01:02:32;100378.94;;;22.48;100.00
55490;BME280;44029;52.956;4.772;2023-07-24T01:04:58;100384.28;;;22.11;100.00
55490;BME280;44029;52.956;4.772;2023-07-24T01:07:24;100359.78;;;22.58;100.00
55490;BME280;44029;52.956;4.772;2023-07-24T01:09:50;100359.06;;;22.49;100.00
55490;BME280;44029;52.956;4.772;2023-07-24T01:18:13;100344.91;;;22.67;100.00
55490;BME280;44029;52.956;4.772;2023-07-24T01:20:44;100340.00;;;22.51;100.00
55490;BME280;44029;52.956;4.772;2023-07-24T01:26:06;100329.69;;;22.31;100.00
55490;BME280;44029;52.956;4.772;2023-07-24T01:28:32;100320.00;;;22.28;100.00
55490;BME280;44029;52.956;4.772;2023-07-24T01:30:57;100328.03;;;22.09;100.00
55490;BME280;44029;52.956;4.772;2023-07-24T01:33:23;100332.09;;;22.11;100.00
55490;BME280;44029;52.956;4.772;2023-07-24T01:35:55;100325.72;;;22.32;100.00
55490;BME280;44029;52.956;4.772;2023-07-24T01:38:24;100326.47;;;22.20;100.00
55490;BME280;44029;52.956;4.772;2023-07-24T01:40:52;100324.34;;;22.17;100.00
55490;BME280;44029;52.956;4.772;2023-07-24T01:43:18;100335.19;;;21.97;100.00
55490;BME280;44029;52.956;4.772;2023-07-24T01:45:43;100325.38;;;22.12;100.00
55490;BME280;44029;52.956;4.772;2023-07-24T01:48:08;100318.44;;;22.39;100.00
55490;BME280;44029;52.956;4.772;2023-07-24T01:50:34;100310.88;;;21.98;100.00
55490;BME280;44029;52.956;4.772;2023-07-24T01:52:59;100306.13;;;21.98;100.00
55490;BME280;44029;52.956;4.772;2023-07-24T01:55:25;100312.09;;;22.09;100.00
55490;BME280;44029;52.956;4.772;2023-07-24T01:57:50;100313.53;;;21.94;100.00
55490;BME280;44029;52.956;4.772;2023-07-24T02:00:15;100318.84;;;22.08;100.00
55490;BME280;44029;52.956;4.772;2023-07-24T02:02:41;100319.81;;;22.12;100.00
55490;BME280;44029;52.956;4.772;2023-07-24T02:05:06;100318.63;;;22.13;100.00
55490;BME280;44029;52.956;4.772;2023-07-24T02:07:32;100309.91;;;22.15;100.00
55490;BME280;44029;52.956;4.772;2023-07-24T02:09:57;100305.25;;;22.28;100.00
55490;BME280;44029;52.956;4.772;2023-07-24T02:12:23;100310.63;;;22.33;100.00
55490;BME280;44029;52.956;4.772;2023-07-24T02:14:48;100311.63;;;22.07;100.00
55490;BME280;44029;52.956;4.772;2023-07-24T02:17:18;100309.50;;;22.25;100.00
55490;BME280;44029;52.956;4.772;2023-07-24T02:19:44;100314.91;;;21.88;100.00
55490;BME280;44029;52.956;4.772;2023-07-24T02:22:09;100314.97;;;22.00;100.00
55490;BME280;44029;52.956;4.772;2023-07-24T02:24:35;100300.81;;;22.60;100.00
55490;BME280;44029;52.956;4.772;2023-07-24T02:27:00;100292.09;;;22.28;100.00
55490;BME280;44029;52.956;4.772;2023-07-24T02:29:26;100295.41;;;22.43;100.00
55490;BME280;44029;52.956;4.772;2023-07-24T02:31:53;100297.13;;;22.35;100.00
55490;BME280;44029;52.956;4.772;2023-07-24T02:34:18;100298.03;;;22.27;100.00
55490;BME280;44029;52.956;4.772;2023-07-24T02:36:44;100309.00;;;21.90;100.00
55490;BME280;44029;52.956;4.772;2023-07-24T02:39:09;100307.81;;;21.70;100.00
55490;BME280;44029;52.956;4.772;2023-07-24T02:41:34;100297.41;;;22.00;100.00
55490;BME280;44029;52.956;4.772;2023-07-24T02:44:01;100309.28;;;21.97;100.00
55490;BME280;44029;52.956;4.772;2023-07-24T02:46:27;100313.59;;;21.86;100.00
55490;BME280;44029;52.956;4.772;2023-07-24T02:48:53;100311.84;;;22.02;100.00
55490;BME280;44029;52.956;4.772;2023-07-24T02:51:19;100313.00;;;22.01;100.00
55490;BME280;44029;52.956;4.772;2023-07-24T02:53:44;100314.09;;;22.09;100.00
55490;BME280;44029;52.956;4.772;2023-07-24T02:56:09;100294.94;;;22.41;100.00
55490;BME280;44029;52.956;4.772;2023-07-24T02:58:35;100288.47;;;22.49;100.00
55490;BME280;44029;52.956;4.772;2023-07-24T03:01:07;100294.69;;;22.79;100.00
55490;BME280;44029;52.956;4.772;2023-07-24T03:03:34;100287.59;;;22.69;100.00
55490;BME280;44029;52.956;4.772;2023-07-24T03:06:00;100294.22;;;22.77;100.00
55490;BME280;44029;52.956;4.772;2023-07-24T03:08:25;100283.22;;;22.47;100.00
55490;BME280;44029;52.956;4.772;2023-07-24T03:10:51;100280.09;;;22.61;100.00
55490;BME280;44029;52.956;4.772;2023-07-24T03:13:17;100272.88;;;22.48;100.00
55490;BME280;44029;52.956;4.772;2023-07-24T03:15:42;100271.84;;;22.65;100.00
55490;BME280;44029;52.956;4.772;2023-07-24T03:18:08;100269.47;;;22.42;100.00
55490;BME280;44029;52.956;4.772;2023-07-24T03:20:33;100276.66;;;22.31;100.00
55490;BME280;44029;52.956;4.772;2023-07-24T03:22:58;100276.50;;;22.61;100.00
55490;BME280;44029;52.956;4.772;2023-07-24T03:25:24;100278.66;;;22.43;100.00
55490;BME280;44029;52.956;4.772;2023-07-24T03:27:49;100281.09;;;22.11;100.00
55490;BME280;44029;52.956;4.772;2023-07-24T03:30:14;100267.91;;;22.66;100.00
55490;BME280;44029;52.956;4.772;2023-07-24T03:32:40;100261.41;;;22.74;100.00
55490;BME280;44029;52.956;4.772;2023-07-24T03:35:06;100274.78;;;22.68;100.00
55490;BME280;44029;52.956;4.772;2023-07-24T03:37:34;100276.16;;;22.74;100.00
55490;BME280;44029;52.956;4.772;2023-07-24T03:39:59;100271.41;;;22.29;100.00
55490;BME280;44029;52.956;4.772;2023-07-24T03:42:30;100285.59;;;22.70;100.00
55490;BME280;44029;52.956;4.772;2023-07-24T03:44:56;100281.59;;;22.25;100.00
55490;BME280;44029;52.956;4.772;2023-07-24T03:47:23;100288.03;;;22.26;100.00
55490;BME280;44029;52.956;4.772;2023-07-24T03:49:49;100288.75;;;22.35;100.00
55490;BME280;44029;52.956;4.772;2023-07-24T03:52:14;100287.97;;;22.47;100.00
55490;BME280;44029;52.956;4.772;2023-07-24T03:54:39;100286.66;;;22.32;100.00
55490;BME280;44029;52.956;4.772;2023-07-24T03:57:05;100286.28;;;22.54;100.00
55490;BME280;44029;52.956;4.772;2023-07-24T03:59:30;100279.25;;;22.48;100.00
55490;BME280;44029;52.956;4.772;2023-07-24T04:01:57;100282.06;;;22.48;100.00
55490;BME280;44029;52.956;4.772;2023-07-24T04:04:22;100278.97;;;22.62;100.00
55490;BME280;44029;52.956;4.772;2023-07-24T04:06:48;100274.81;;;22.35;100.00
55490;BME280;44029;52.956;4.772;2023-07-24T04:09:13;100282.50;;;22.38;100.00
55490;BME280;44029;52.956;4.772;2023-07-24T04:11:42;100282.75;;;22.45;100.00
55490;BME280;44029;52.956;4.772;2023-07-24T04:14:08;100286.66;;;22.32;100.00
55490;BME280;44029;52.956;4.772;2023-07-24T04:16:33;100288.50;;;21.86;100.00
55490;BME280;44029;52.956;4.772;2023-07-24T04:18:58;100286.19;;;22.30;100.00
55490;BME280;44029;52.956;4.772;2023-07-24T04:21:24;100284.75;;;22.57;100.00
55490;BME280;44029;52.956;4.772;2023-07-24T04:23:49;100283.38;;;22.30;100.00
55490;BME280;44029;52.956;4.772;2023-07-24T04:26:14;100279.91;;;22.33;100.00
55490;BME280;44029;52.956;4.772;2023-07-24T04:28:40;100292.16;;;22.19;100.00
55490;BME280;44029;52.956;4.772;2023-07-24T04:31:05;100280.38;;;22.35;100.00
55490;BME280;44029;52.956;4.772;2023-07-24T04:33:30;100280.31;;;22.56;100.00
55490;BME280;44029;52.956;4.772;2023-07-24T04:35:56;100283.13;;;22.56;100.00
55490;BME280;44029;52.956;4.772;2023-07-24T04:38:22;100279.72;;;22.50;100.00
55490;BME280;44029;52.956;4.772;2023-07-24T04:40:47;100284.97;;;22.39;100.00
55490;BME280;44029;52.956;4.772;2023-07-24T04:43:12;100282.88;;;22.49;100.00
55490;BME280;44029;52.956;4.772;2023-07-24T04:45:38;100275.44;;;22.53;100.00
55490;BME280;44029;52.956;4.772;2023-07-24T04:48:04;100265.47;;;22.64;100.00
55490;BME280;44029;52.956;4.772;2023-07-24T04:50:29;100270.88;;;22.36;100.00
55490;BME280;44029;52.956;4.772;2023-07-24T04:52:55;100276.50;;;22.61;100.00
55490;BME280;44029;52.956;4.772;2023-07-24T04:55:21;100272.59;;;22.86;100.00
55490;BME280;44029;52.956;4.772;2023-07-24T04:57:47;100272.94;;;22.39;100.00
55490;BME280;44029;52.956;4.772;2023-07-24T05:00:12;100285.56;;;22.45;100.00
55490;BME280;44029;52.956;4.772;2023-07-24T05:02:38;100273.28;;;22.37;100.00
55490;BME280;44029;52.956;4.772;2023-07-24T05:05:04;100273.75;;;22.85;100.00
55490;BME280;44029;52.956;4.772;2023-07-24T05:07:29;100277.31;;;22.61;100.00
55490;BME280;44029;52.956;4.772;2023-07-24T05:09:54;100271.00;;;22.52;100.00
55490;BME280;44029;52.956;4.772;2023-07-24T05:12:20;100270.00;;;22.69;100.00
55490;BME280;44029;52.956;4.772;2023-07-24T05:14:45;100262.00;;;22.67;100.00
55490;BME280;44029;52.956;4.772;2023-07-24T05:17:10;100266.63;;;22.63;100.00
55490;BME280;44029;52.956;4.772;2023-07-24T05:19:36;100260.22;;;22.63;100.00
55490;BME280;44029;52.956;4.772;2023-07-24T05:22:01;100257.00;;;22.73;100.00
55490;BME280;44029;52.956;4.772;2023-07-24T05:24:27;100248.97;;;22.84;100.00
55490;BME280;44029;52.956;4.772;2023-07-24T05:26:52;100252.72;;;23.12;100.00
55490;BME280;44029;52.956;4.772;2023-07-24T05:29:17;100257.59;;;23.52;100.00
55490;BME280;44029;52.956;4.772;2023-07-24T05:31:43;100252.06;;;23.68;100.00
55490;BME280;44029;52.956;4.772;2023-07-24T05:34:08;100245.38;;;23.85;100.00
55490;BME280;44029;52.956;4.772;2023-07-24T05:36:33;100248.09;;;23.69;100.00
55490;BME280;44029;52.956;4.772;2023-07-24T05:38:59;100247.38;;;23.85;100.00
55490;BME280;44029;52.956;4.772;2023-07-24T05:41:24;100252.22;;;23.47;100.00
55490;BME280;44029;52.956;4.772;2023-07-24T05:43:49;100250.00;;;23.53;100.00
55490;BME280;44029;52.956;4.772;2023-07-24T05:46:15;100258.44;;;23.28;100.00
55490;BME280;44029;52.956;4.772;2023-07-24T05:48:41;100248.72;;;23.50;100.00
55490;BME280;44029;52.956;4.772;2023-07-24T05:51:06;100255.16;;;23.51;100.00
55490;BME280;44029;52.956;4.772;2023-07-24T05:53:31;100257.22;;;23.54;100.00
55490;BME280;44029;52.956;4.772;2023-07-24T05:56:01;100250.94;;;23.45;100.00
55490;BME280;44029;52.956;4.772;2023-07-24T05:58:27;100258.16;;;23.58;100.00
55490;BME280;44029;52.956;4.772;2023-07-24T06:00:53;100260.13;;;23.58;100.00
55490;BME280;44029;52.956;4.772;2023-07-24T06:03:19;100256.66;;;23.48;100.00
55490;BME280;44029;52.956;4.772;2023-07-24T06:05:45;100257.13;;;23.38;100.00
55490;BME280;44029;52.956;4.772;2023-07-24T06:08:10;100266.66;;;23.49;100.00
55490;BME280;44029;52.956;4.772;2023-07-24T06:10:36;100267.03;;;23.48;100.00
55490;BME280;44029;52.956;4.772;2023-07-24T06:13:02;100268.31;;;23.01;100.00
55490;BME280;44029;52.956;4.772;2023-07-24T06:15:27;100263.06;;;23.24;100.00
55490;BME280;44029;52.956;4.772;2023-07-24T06:17:52;100262.63;;;23.22;100.00
55490;BME280;44029;52.956;4.772;2023-07-24T06:20:18;100264.34;;;23.39;100.00
55490;BME280;44029;52.956;4.772;2023-07-24T06:22:43;100260.13;;;23.58;100.00
55490;BME280;44029;52.956;4.772;2023-07-24T06:25:08;100260.06;;;23.42;100.00
55490;BME280;44029;52.956;4.772;2023-07-24T06:27:34;100261.94;;;23.25;100.00
55490;BME280;44029;52.956;4.772;2023-07-24T06:29:59;100247.41;;;24.57;100.00
55490;BME280;44029;52.956;4.772;2023-07-24T06:32:25;100234.53;;;25.71;100.00
55490;BME280;44029;52.956;4.772;2023-07-24T06:34:50;100227.34;;;27.02;100.00
55490;BME280;44029;52.956;4.772;2023-07-24T06:37:15;100232.91;;;26.09;100.00
55490;BME280;44029;52.956;4.772;2023-07-24T06:39:41;100225.19;;;27.45;100.00
55490;BME280;44029;52.956;4.772;2023-07-24T06:42:07;100225.94;;;26.65;100.00
55490;BME280;44029;52.956;4.772;2023-07-24T06:44:32;100225.78;;;26.35;100.00
55490;BME280;44029;52.956;4.772;2023-07-24T06:46:58;100236.41;;;26.02;100.00
55490;BME280;44029;52.956;4.772;2023-07-24T06:49:23;100243.84;;;25.40;100.00
55490;BME280;44029;52.956;4.772;2023-07-24T06:51:48;100251.50;;;24.60;100.00
55490;BME280;44029;52.956;4.772;2023-07-24T06:54:14;100266.03;;;24.37;100.00
55490;BME280;44029;52.956;4.772;2023-07-24T06:56:39;100263.09;;;24.46;100.00
55490;BME280;44029;52.956;4.772;2023-07-24T06:59:04;100253.84;;;24.29;100.00
55490;BME280;44029;52.956;4.772;2023-07-24T07:01:30;100267.28;;;23.96;100.00
55490;BME280;44029;52.956;4.772;2023-07-24T07:03:55;100269.72;;;24.25;100.00
55490;BME280;44029;52.956;4.772;2023-07-24T07:06:21;100273.28;;;23.69;100.00
55490;BME280;44029;52.956;4.772;2023-07-24T07:08:46;100266.50;;;23.70;100.00
55490;BME280;44029;52.956;4.772;2023-07-24T07:11:11;100264.13;;;23.97;100.00
55490;BME280;44029;52.956;4.772;2023-07-24T07:13:37;100274.22;;;23.61;100.00
55490;BME280;44029;52.956;4.772;2023-07-24T07:16:02;100276.78;;;23.66;100.00
55490;BME280;44029;52.956;4.772;2023-07-24T07:18:27;100281.09;;;23.02;100.00
55490;BME280;44029;52.956;4.772;2023-07-24T07:20:53;100279.28;;;23.31;100.00
55490;BME280;44029;52.956;4.772;2023-07-24T07:23:20;100278.78;;;24.06;100.00
55490;BME280;44029;52.956;4.772;2023-07-24T07:25:46;100270.97;;;24.12;100.00
55490;BME280;44029;52.956;4.772;2023-07-24T07:28:15;100278.16;;;24.41;100.00
55490;BME280;44029;52.956;4.772;2023-07-24T07:30:42;100278.03;;;23.81;100.00
55490;BME280;44029;52.956;4.772;2023-07-24T07:33:07;100280.69;;;23.78;100.00
55490;BME280;44029;52.956;4.772;2023-07-24T07:35:33;100274.09;;;23.82;100.00
55490;BME280;44029;52.956;4.772;2023-07-24T07:37:58;100269.81;;;23.48;100.00
55490;BME280;44029;52.956;4.772;2023-07-24T07:40:24;100273.94;;;23.91;100.00
55490;BME280;44029;52.956;4.772;2023-07-24T07:42:52;100273.38;;;24.42;100.00
55490;BME280;44029;52.956;4.772;2023-07-24T07:45:17;100266.31;;;24.92;100.00
55490;BME280;44029;52.956;4.772;2023-07-24T07:47:42;100255.97;;;25.44;100.00
55490;BME280;44029;52.956;4.772;2023-07-24T07:50:08;100261.78;;;25.03;100.00
55490;BME280;44029;52.956;4.772;2023-07-24T07:52:33;100258.16;;;25.35;100.00
55490;BME280;44029;52.956;4.772;2023-07-24T07:54:59;100256.03;;;25.48;100.00
55490;BME280;44029;52.956;4.772;2023-07-24T07:57:24;100252.75;;;25.26;100.00
55490;BME280;44029;52.956;4.772;2023-07-24T07:59:49;100262.22;;;25.21;100.00
55490;BME280;44029;52.956;4.772;2023-07-24T08:02:15;100257.53;;;24.94;100.00
55490;BME280;44029;52.956;4.772;2023-07-24T08:04:40;100260.34;;;24.62;100.00
55490;BME280;44029;52.956;4.772;2023-07-24T08:07:05;100256.09;;;24.24;100.00
55490;BME280;44029;52.956;4.772;2023-07-24T08:09:31;100248.69;;;24.31;100.00
55490;BME280;44029;52.956;4.772;2023-07-24T08:11:57;100257.53;;;24.18;100.00
55490;BME280;44029;52.956;4.772;2023-07-24T08:14:23;100255.28;;;24.83;100.00
55490;BME280;44029;52.956;4.772;2023-07-24T08:16:48;100244.66;;;25.40;100.00
55490;BME280;44029;52.956;4.772;2023-07-24T08:19:14;100233.00;;;25.93;100.00
55490;BME280;44029;52.956;4.772;2023-07-24T08:21:40;100227.28;;;26.52;100.00
55490;BME280;44029;52.956;4.772;2023-07-24T08:24:05;100222.91;;;27.54;100.00
55490;BME280;44029;52.956;4.772;2023-07-24T08:26:31;100221.75;;;28.57;100.00
55490;BME280;44029;52.956;4.772;2023-07-24T08:28:56;100223.25;;;28.91;100.00
55490;BME280;44029;52.956;4.772;2023-07-24T08:31:21;100221.94;;;29.26;100.00
55490;BME280;44029;52.956;4.772;2023-07-24T08:33:47;100214.31;;;29.34;100.00
55490;BME280;44029;52.956;4.772;2023-07-24T08:36:12;100214.88;;;29.02;100.00
55490;BME280;44029;52.956;4.772;2023-07-24T08:38:38;100215.66;;;28.99;100.00
55490;BME280;44029;52.956;4.772;2023-07-24T08:41:09;100217.41;;;29.15;100.00
55490;BME280;44029;52.956;4.772;2023-07-24T08:43:35;100210.03;;;29.65;100.00
55490;BME280;44029;52.956;4.772;2023-07-24T08:46:02;100220.13;;;29.07;100.00
55490;BME280;44029;52.956;4.772;2023-07-24T08:48:38;100205.03;;;29.34;100.00
55490;BME280;44029;52.956;4.772;2023-07-24T08:51:08;100223.88;;;28.70;100.00
55490;BME280;44029;52.956;4.772;2023-07-24T08:53:35;100228.41;;;28.41;100.00
55490;BME280;44029;52.956;4.772;2023-07-24T08:56:05;100227.94;;;29.21;100.00
55490;BME280;44029;52.956;4.772;2023-07-24T08:58:32;100226.41;;;28.83;100.00
55490;BME280;44029;52.956;4.772;2023-07-24T09:00:58;100230.19;;;28.57;100.00
55490;BME280;44029;52.956;4.772;2023-07-24T09:03:24;100234.41;;;28.77;100.00
55490;BME280;44029;52.956;4.772;2023-07-24T09:05:50;100230.25;;;28.60;100.00
55490;BME280;44029;52.956;4.772;2023-07-24T09:08:15;100245.09;;;28.57;100.00
55490;BME280;44029;52.956;4.772;2023-07-24T09:10:41;100236.91;;;28.45;100.00
55490;BME280;44029;52.956;4.772;2023-07-24T09:13:06;100232.13;;;28.94;100.00
55490;BME280;44029;52.956;4.772;2023-07-24T09:15:44;100244.22;;;29.49;100.00
55490;BME280;44029;52.956;4.772;2023-07-24T09:18:10;100234.28;;;28.63;100.00
55490;BME280;44029;52.956;4.772;2023-07-24T09:20:40;100237.47;;;29.09;100.00
55490;BME280;44029;52.956;4.772;2023-07-24T09:23:07;100238.34;;;29.14;100.00
55490;BME280;44029;52.956;4.772;2023-07-24T09:25:35;100239.78;;;28.52;100.00
55490;BME280;44029;52.956;4.772;2023-07-24T09:28:01;100226.09;;;28.13;100.00
55490;BME280;44029;52.956;4.772;2023-07-24T09:30:26;100230.28;;;27.92;100.00
55490;BME280;44029;52.956;4.772;2023-07-24T09:32:54;100232.47;;;28.44;100.00
55490;BME280;44029;52.956;4.772;2023-07-24T09:35:21;100235.38;;;27.53;100.00
55490;BME280;44029;52.956;4.772;2023-07-24T09:38:05;100223.75;;;27.28;100.00
55490;BME280;44029;52.956;4.772;2023-07-24T09:40:41;100229.91;;;27.10;100.00
55490;BME280;44029;52.956;4.772;2023-07-24T09:43:19;100239.19;;;26.22;100.00
55490;BME280;44029;52.956;4.772;2023-07-24T09:45:46;100245.50;;;26.15;100.00
55490;BME280;44029;52.956;4.772;2023-07-24T09:48:13;100234.44;;;25.68;100.00
55490;BME280;44029;52.956;4.772;2023-07-24T09:50:40;100232.63;;;25.95;100.00
55490;BME280;44029;52.956;4.772;2023-07-24T09:53:11;100234.00;;;25.85;100.00
55490;BME280;44029;52.956;4.772;2023-07-24T09:55:59;100224.84;;;25.49;100.00
55490;BME280;44029;52.956;4.772;2023-07-24T09:58:24;100244.34;;;24.62;100.00
55490;BME280;44029;52.956;4.772;2023-07-24T10:00:50;100235.88;;;24.75;100.00
55490;BME280;44029;52.956;4.772;2023-07-24T10:03:16;100227.34;;;24.87;100.00
55490;BME280;44029;52.956;4.772;2023-07-24T10:05:44;100225.78;;;25.21;100.00
55490;BME280;44029;52.956;4.772;2023-07-24T10:08:10;100231.03;;;25.23;100.00
55490;BME280;44029;52.956;4.772;2023-07-24T10:10:38;100225.03;;;25.40;100.00
55490;BME280;44029;52.956;4.772;2023-07-24T10:13:04;100227.94;;;25.83;100.00
55490;BME280;44029;52.956;4.772;2023-07-24T10:15:29;100225.13;;;26.22;100.00
55490;BME280;44029;52.956;4.772;2023-07-24T10:18:06;100224.16;;;26.76;100.00
55490;BME280;44029;52.956;4.772;2023-07-24T10:20:33;100225.41;;;26.36;100.00
55490;BME280;44029;52.956;4.772;2023-07-24T10:23:01;100231.38;;;26.77;100.00
55490;BME280;44029;52.956;4.772;2023-07-24T10:25:35;100230.81;;;26.45;100.00
55490;BME280;44029;52.956;4.772;2023-07-24T10:28:05;100232.09;;;25.70;100.00
55490;BME280;44029;52.956;4.772;2023-07-24T10:30:36;100234.44;;;26.26;100.00
55490;BME280;44029;52.956;4.772;2023-07-24T10:38:09;100238.50;;;25.70;100.00
55490;BME280;44029;52.956;4.772;2023-07-24T10:40:35;100239.88;;;26.15;100.00
55490;BME280;44029;52.956;4.772;2023-07-24T10:43:04;100236.94;;;25.53;100.00
55490;BME280;44029;52.956;4.772;2023-07-24T10:45:47;100236.16;;;26.11;100.00
55490;BME280;44029;52.956;4.772;2023-07-24T10:48:14;100233.28;;;26.08;100.00
55490;BME280;44029;52.956;4.772;2023-07-24T10:50:41;100237.25;;;26.69;100.00
55490;BME280;44029;52.956;4.772;2023-07-24T10:53:08;100238.63;;;25.93;100.00
55490;BME280;44029;52.956;4.772;2023-07-24T10:55:34;100265.13;;;24.77;100.00
55490;BME280;44029;52.956;4.772;2023-07-24T10:57:59;100265.06;;;24.45;100.00
55490;BME280;44029;52.956;4.772;2023-07-24T11:00:25;100266.41;;;24.64;100.00
55490;BME280;44029;52.956;4.772;2023-07-24T11:02:53;100266.31;;;24.32;100.00
55490;BME280;44029;52.956;4.772;2023-07-24T11:05:20;100264.94;;;23.98;100.00
55490;BME280;44029;52.956;4.772;2023-07-24T11:07:46;100274.19;;;23.86;100.00
55490;BME280;44029;52.956;4.772;2023-07-24T11:10:16;100284.53;;;24.26;100.00
55490;BME280;44029;52.956;4.772;2023-07-24T11:12:42;100279.78;;;23.86;100.00
55490;BME280;44029;52.956;4.772;2023-07-24T11:15:07;100280.28;;;24.04;100.00
55490;BME280;44029;52.956;4.772;2023-07-24T11:17:34;100278.31;;;23.64;100.00
55490;BME280;44029;52.956;4.772;2023-07-24T11:20:15;100279.38;;;23.47;100.00
55490;BME280;44029;52.956;4.772;2023-07-24T11:22:42;100290.44;;;23.43;100.00
55490;BME280;44029;52.956;4.772;2023-07-24T11:25:09;100294.84;;;23.32;100.00
55490;BME280;44029;52.956;4.772;2023-07-24T11:27:41;100290.78;;;23.29;100.00
55490;BME280;44029;52.956;4.772;2023-07-24T11:30:10;100298.94;;;23.34;100.00
55490;BME280;44029;52.956;4.772;2023-07-24T11:32:40;100299.22;;;22.84;100.00
55490;BME280;44029;52.956;4.772;2023-07-24T11:35:07;100294.59;;;22.42;100.00
55490;BME280;44029;52.956;4.772;2023-07-24T11:37:34;100306.88;;;22.29;100.00
55490;BME280;44029;52.956;4.772;2023-07-24T11:40:01;100309.75;;;22.53;100.00
55490;BME280;44029;52.956;4.772;2023-07-24T11:42:37;100312.47;;;22.74;100.00
55490;BME280;44029;52.956;4.772;2023-07-24T11:45:03;100324.22;;;22.68;100.00
55490;BME280;44029;52.956;4.772;2023-07-24T11:47:28;100327.78;;;22.56;100.00
55490;BME280;44029;52.956;4.772;2023-07-24T11:50:00;100327.44;;;22.57;100.00
55490;BME280;44029;52.956;4.772;2023-07-24T11:52:39;100352.03;;;22.22;100.00
55490;BME280;44029;52.956;4.772;2023-07-24T11:55:05;100346.28;;;22.27;100.00
55490;BME280;44029;52.956;4.772;2023-07-24T11:57:31;100336.00;;;22.40;100.00
55490;BME280;44029;52.956;4.772;2023-07-24T11:59:56;100337.97;;;22.18;100.00
55490;BME280;44029;52.956;4.772;2023-07-24T12:02:25;100347.22;;;22.10;100.00
55490;BME280;44029;52.956;4.772;2023-07-24T12:04:58;100347.16;;;22.40;100.00
55490;BME280;44029;52.956;4.772;2023-07-24T12:07:34;100351.78;;;22.15;100.00
55490;BME280;44029;52.956;4.772;2023-07-24T12:10:01;100354.94;;;21.84;100.00
55490;BME280;44029;52.956;4.772;2023-07-24T12:12:43;100352.94;;;22.35;100.00
55490;BME280;44029;52.956;4.772;2023-07-24T12:15:09;100363.13;;;21.89;100.00
55490;BME280;44029;52.956;4.772;2023-07-24T12:17:36;100356.31;;;21.77;100.00
55490;BME280;44029;52.956;4.772;2023-07-24T12:20:02;100364.78;;;21.60;100.00
55490;BME280;44029;52.956;4.772;2023-07-24T12:22:29;100365.59;;;21.13;100.00
55490;BME280;44029;52.956;4.772;2023-07-24T12:24:55;100389.69;;;21.18;100.00
55490;BME280;44029;52.956;4.772;2023-07-24T12:27:21;100380.91;;;20.98;100.00
55490;BME280;44029;52.956;4.772;2023-07-24T12:29:46;100375.00;;;20.91;100.00
55490;BME280;44029;52.956;4.772;2023-07-24T12:32:11;100378.81;;;20.78;100.00
55490;BME280;44029;52.956;4.772;2023-07-24T12:34:37;100381.13;;;20.67;100.00
55490;BME280;44029;52.956;4.772;2023-07-24T12:37:02;100388.50;;;20.72;100.00
55490;BME280;44029;52.956;4.772;2023-07-24T12:39:28;100397.28;;;20.91;100.00
55490;BME280;44029;52.956;4.772;2023-07-24T12:41:53;100381.06;;;21.02;100.00
55490;BME280;44029;52.956;4.772;2023-07-24T12:44:18;100388.94;;;20.91;100.00
55490;BME280;44029;52.956;4.772;2023-07-24T12:46:44;100390.59;;;20.83;100.00
55490;BME280;44029;52.956;4.772;2023-07-24T12:49:09;100399.66;;;21.19;100.00
55490;BME280;44029;52.956;4.772;2023-07-24T12:51:35;100403.56;;;20.79;100.00